Lyster, Canada
Current Conditions -  °F | °C
As of 1:00 AM on Thursday 23 Oct 2014 (Local Time) from CYQB Reporting Station
Few Clouds Few Clouds  
Wind Chill: 35°   Ceiling: Unl
Heat Index: 43°   Visibility: 15mi
Dew Point: 34°   Wind: 16mph
Humidity: 70%   Direction: 70°ENE
Pressure: 30.27"   Gusts: 25mph
Location:  46.37°N, 71.62°W
Report Text: CYQB 230500Z 07014G22KT 15SM FEW200 06/01 A3027 RMK CI2 SLP253
Loading
Personal Weather Stations






























Interactive Weather Map New forecast layout! Learn more

10-Day Weather Forecast

Advertisements
Track Severe Weather on mobile